Parkrose, Oregon
Current Conditions -  °F | °C
As of 2:53 PM on Monday 24 Nov 2014 (Local Time) from KTTD Reporting Station
Overcast Overcast  
Wind Chill: 50°   Ceiling: 9000
Heat Index: 50°   Visibility: 10mi
Dew Point: 44°   Wind: 3mph
Humidity: 80%   Direction: 50°NE
Pressure: 30.28"   Gusts: NA
Location:  45.5423°N, 122.5°W
Report Text: KTTD 242253Z 05003KT 10SM SCT075 OVC090 10/07 A3028 RMK AO2 RAB35E45 SLP252 P0000 T01000067
Loading
Personal Weather Stations






























Interactive Weather Map New forecast layout! Learn more

10-Day Weather Forecast

Advertisements
Track Severe Weather on mobile